Terminal Aerodrome Forecast
Issued by NWS

Home | Current Version | Previous Version | Text Only | Print | Product List | Glossary On
Versions: 1 2 3 4 5 6 7 8 9 10 11 12 13 14 15 16 17 18 19 20 21 22 23 24
000
FTUS43 KMQT 021700
TAFSAW
TAF
KSAW 021737Z 0218/0318 26007KT P6SM SCT050
     FM021900 29006KT P6SM BKN050
     FM022000 34005KT P6SM VCSH BKN050
     FM022200 33004KT P6SM SCT050
     FM030000 21003KT P6SM FEW150
     FM031500 22011G16KT P6SM FEW200
      AMD LTD TO CLD VIS AND WIND 0302/0310=

USA.gov is the U.S. government's official web portal to all federal, state and local government web resources and services.